createdAt,value
2019-02-04T00:00:17.259Z,87.97
2019-02-04T00:05:12.335Z,88.39
2019-02-04T00:10:11.660Z,88.23
2019-02-04T00:15:09.993Z,88.23
2019-02-04T00:20:07.698Z,88.16
2019-02-04T00:25:02.286Z,88.56
2019-02-04T00:29:56.886Z,88.43
2019-02-04T00:34:51.474Z,88.24
2019-02-04T00:39:46.073Z,87.78
2019-02-04T00:44:40.650Z,88.03
2019-02-04T00:49:35.259Z,88.78
2019-02-04T00:54:29.950Z,89.02
2019-02-04T00:59:24.559Z,89.16
2019-02-04T01:04:19.132Z,89.29
2019-02-04T01:09:15.036Z,89.04
2019-02-04T01:14:10.023Z,88.69
2019-02-04T01:19:04.772Z,88.70
2019-02-04T01:23:59.338Z,88.23
2019-02-04T01:28:53.956Z,88.60
2019-02-04T01:33:48.509Z,88.54
2019-02-04T01:38:43.107Z,88.86
2019-02-04T01:43:37.883Z,88.63
2019-02-04T01:48:32.480Z,88.82
2019-02-04T01:53:27.099Z,87.83
2019-02-04T01:58:21.683Z,87.46
2019-02-04T02:03:16.260Z,87.38
2019-02-04T02:08:10.850Z,87.79
2019-02-04T02:13:05.563Z,88.00
2019-02-04T02:18:00.389Z,88.52
2019-02-04T02:22:55.044Z,88.27
2019-02-04T02:27:49.717Z,88.33
2019-02-04T02:32:44.306Z,88.79
2019-02-04T02:37:38.903Z,88.89
2019-02-04T02:42:33.478Z,89.64
2019-02-04T02:47:38.178Z,89.46
2019-02-04T02:52:24.368Z,89.73
2019-02-04T02:57:19.080Z,90.06
2019-02-04T03:02:13.739Z,90.51
2019-02-04T03:07:08.347Z,90.39
2019-02-04T03:12:02.952Z,90.07
2019-02-04T03:16:57.559Z,90.48
2019-02-04T03:21:52.188Z,90.95
2019-02-04T03:26:46.787Z,91.26
2019-02-04T03:31:45.792Z,90.70
2019-02-04T03:36:37.691Z,90.92
2019-02-04T03:41:33.321Z,90.34
2019-02-04T03:46:27.927Z,89.89
2019-02-04T03:51:22.531Z,90.46
2019-02-04T03:56:17.128Z,90.87
2019-02-04T04:01:11.765Z,91.36
2019-02-04T04:06:06.448Z,92.01
2019-02-04T04:11:01.070Z,91.74
2019-02-04T04:15:55.758Z,91.71
2019-02-04T04:20:50.370Z,91.52
2019-02-04T04:25:44.970Z,91.34
2019-02-04T04:30:39.565Z,91.71
2019-02-04T04:35:34.200Z,91.31
2019-02-04T04:40:28.818Z,91.99
2019-02-04T04:45:26.211Z,92.09
2019-02-04T04:50:20.888Z,91.11
2019-02-04T04:55:25.933Z,91.69
2019-02-04T05:00:24.747Z,91.64
2019-02-04T05:05:19.334Z,92.29
2019-02-04T05:10:18.309Z,92.84
2019-02-04T05:15:19.789Z,92.56
2019-02-04T05:20:17.533Z,91.97
2019-02-04T05:25:12.675Z,92.28
2019-02-04T05:30:12.105Z,91.61
2019-02-04T05:35:06.921Z,92.39
2019-02-04T05:40:01.523Z,93.14
2019-02-04T05:44:56.236Z,93.56
2019-02-04T05:49:51.202Z,93.64
2019-02-04T05:54:45.813Z,93.08
2019-02-04T05:59:40.425Z,93.19
2019-02-04T06:04:35.078Z,93.23
2019-02-04T06:09:29.663Z,92.78
2019-02-04T06:14:24.276Z,92.21
2019-02-04T06:19:18.870Z,92.25
2019-02-04T06:24:13.774Z,92.30
2019-02-04T06:29:08.373Z,91.89
2019-02-04T06:34:03.172Z,91.27
2019-02-04T06:38:57.771Z,90.35
2019-02-04T06:43:52.382Z,90.37
2019-02-04T06:48:46.968Z,89.59
2019-02-04T06:53:41.919Z,88.74
2019-02-04T06:58:36.532Z,89.15
2019-02-04T07:03:31.239Z,89.33
2019-02-04T07:08:25.864Z,89.31
2019-02-04T07:13:20.484Z,89.32
2019-02-04T07:18:15.085Z,89.19
2019-02-04T07:23:09.662Z,88.56
2019-02-04T07:28:04.298Z,88.46
2019-02-04T07:32:59.252Z,87.62
2019-02-04T07:37:54.081Z,87.84
2019-02-04T07:42:50.008Z,88.00
2019-02-04T07:47:44.992Z,88.27
2019-02-04T07:52:40.150Z,86.78
2019-02-04T07:57:35.788Z,86.55
2019-02-04T08:02:30.445Z,86.81
2019-02-04T08:07:25.592Z,86.59
2019-02-04T08:12:20.547Z,87.46
2019-02-04T08:17:15.272Z,87.35
2019-02-04T08:22:09.997Z,86.11
2019-02-04T08:27:06.214Z,84.63
2019-02-04T08:32:03.924Z,84.32
2019-02-04T08:36:59.238Z,83.75
2019-02-04T08:41:54.404Z,82.53
2019-02-04T08:47:02.410Z,82.68
2019-02-04T08:52:12.189Z,81.77
2019-02-04T08:57:06.888Z,80.82
2019-02-04T09:02:01.779Z,82.02
2019-02-04T09:07:28.759Z,81.97
2019-02-04T09:12:24.574Z,80.90
2019-02-04T09:17:20.285Z,81.51
2019-02-04T09:22:16.492Z,81.71
2019-02-04T09:27:12.245Z,81.96
2019-02-04T09:32:09.767Z,81.67
2019-02-04T09:37:05.759Z,82.02
2019-02-04T09:42:05.090Z,80.04
2019-02-04T09:47:01.544Z,78.63
2019-02-04T09:51:58.134Z,77.24
2019-02-04T09:56:54.061Z,76.22
2019-02-04T10:01:49.972Z,77.21
2019-02-04T10:06:46.250Z,77.24
2019-02-04T10:11:42.094Z,77.82
2019-02-04T10:16:38.067Z,77.66
2019-02-04T10:21:34.365Z,78.11
2019-02-04T10:26:30.779Z,77.56
2019-02-04T10:31:27.536Z,77.17
2019-02-04T10:36:24.503Z,76.12
2019-02-04T10:41:20.398Z,76.07
2019-02-04T10:46:16.108Z,76.73
2019-02-04T10:51:12.432Z,76.39
2019-02-04T10:56:09.199Z,75.97
2019-02-04T11:01:08.732Z,75.32
2019-02-04T11:06:04.798Z,75.35
2019-02-04T11:10:59.597Z,76.20
2019-02-04T11:15:54.387Z,77.57
2019-02-04T11:20:57.743Z,78.58
2019-02-04T11:25:46.008Z,76.75
2019-02-04T11:30:56.573Z,75.02
2019-02-04T11:35:51.341Z,74.96
2019-02-04T11:40:46.623Z,74.43
2019-02-04T11:45:41.365Z,74.38
2019-02-04T11:50:36.348Z,73.00
2019-02-04T11:55:31.359Z,75.85
2019-02-04T12:00:32.207Z,72.59
2019-02-04T12:05:28.049Z,68.83
2019-02-04T12:10:43.647Z,67.53
2019-02-04T12:15:45.385Z,68.15
2019-02-04T12:20:40.444Z,69.05
2019-02-04T12:25:35.193Z,68.88
2019-02-04T12:30:44.295Z,68.85
2019-02-04T12:35:40.514Z,69.36
2019-02-04T12:40:36.779Z,68.77
2019-02-04T12:45:42.432Z,66.26
2019-02-04T12:50:39.041Z,66.33
2019-02-04T12:55:37.911Z,67.76
2019-02-04T13:00:35.292Z,68.35
2019-02-04T13:05:48.858Z,68.82
2019-02-04T13:10:46.586Z,67.10
2019-02-04T13:15:44.244Z,66.65
2019-02-04T13:20:40.838Z,65.05
2019-02-04T13:25:41.935Z,64.58
2019-02-04T13:30:38.675Z,64.44
2019-02-04T13:35:35.591Z,63.53
2019-02-04T13:40:32.611Z,62.36
2019-02-04T13:45:34.065Z,63.39
2019-02-04T13:50:30.520Z,63.19
2019-02-04T13:55:40.870Z,63.05
2019-02-04T14:00:39.051Z,63.22
2019-02-04T14:05:35.773Z,63.20
2019-02-04T14:10:39.063Z,62.74
2019-02-04T14:15:35.613Z,61.65
2019-02-04T14:20:34.522Z,61.55
2019-02-04T14:25:29.611Z,60.80
2019-02-04T14:30:37.525Z,57.95
2019-02-04T14:35:35.622Z,58.26
2019-02-04T14:40:31.054Z,59.93
2019-02-04T14:46:17.438Z,61.20
2019-02-04T14:51:52.754Z,61.77
2019-02-04T14:57:38.882Z,61.87
2019-02-04T15:02:49.370Z,63.53
2019-02-04T15:08:33.465Z,65.83
2019-02-04T15:14:14.314Z,65.35
2019-02-04T15:19:40.523Z,67.27
2019-02-04T15:25:25.323Z,68.15
2019-02-04T15:30:33.600Z,67.52
2019-02-04T15:35:56.675Z,67.05
2019-02-04T15:41:07.045Z,67.52
2019-02-04T15:46:18.392Z,65.77
2019-02-04T15:51:23.411Z,66.96
2019-02-04T15:56:18.483Z,67.09
2019-02-04T16:01:13.131Z,68.68
2019-02-04T16:06:07.725Z,69.88
2019-02-04T16:11:02.403Z,69.70
2019-02-04T16:15:57.859Z,71.28
2019-02-04T16:20:52.883Z,72.21
2019-02-04T16:25:47.591Z,71.03
2019-02-04T16:30:42.352Z,71.55
2019-02-04T16:35:36.951Z,72.76
2019-02-04T16:40:31.591Z,73.37
2019-02-04T16:45:26.484Z,74.02
2019-02-04T16:50:26.467Z,75.07
2019-02-04T16:55:21.340Z,77.00
2019-02-04T17:00:26.065Z,75.84
2019-02-04T17:05:22.461Z,75.57
2019-02-04T17:10:20.874Z,75.92
2019-02-04T17:15:15.785Z,76.56
2019-02-04T17:20:17.861Z,76.34
2019-02-04T17:25:12.571Z,75.86
2019-02-04T17:30:14.659Z,75.31
2019-02-04T17:35:09.659Z,75.92
2019-02-04T17:40:06.726Z,75.90
2019-02-04T17:45:01.313Z,76.04
2019-02-04T17:49:56.299Z,75.37
2019-02-04T17:54:50.944Z,74.84
2019-02-04T17:59:45.577Z,74.54
2019-02-04T18:04:40.263Z,73.96
2019-02-04T18:09:34.880Z,74.76
2019-02-04T18:14:29.496Z,74.84
2019-02-04T18:19:24.254Z,75.63
2019-02-04T18:24:18.846Z,75.06
2019-02-04T18:29:13.444Z,74.49
2019-02-04T18:34:08.139Z,75.23
2019-02-04T18:39:02.732Z,76.26
2019-02-04T18:43:57.317Z,75.31
2019-02-04T18:48:52.394Z,75.29
2019-02-04T18:53:57.353Z,75.50
2019-02-04T18:58:43.309Z,76.02
2019-02-04T19:03:38.002Z,75.16
2019-02-04T19:08:32.598Z,75.63
2019-02-04T19:13:35.843Z,74.62
2019-02-04T19:18:23.662Z,75.10
2019-02-04T19:23:18.252Z,75.15
2019-02-04T19:28:12.880Z,74.75
2019-02-04T19:33:07.623Z,74.63
2019-02-04T19:38:02.237Z,74.99
2019-02-04T19:42:56.895Z,73.40
2019-02-04T19:47:51.607Z,74.06
2019-02-04T19:52:46.230Z,74.23
2019-02-04T19:57:43.876Z,75.42
2019-02-04T20:02:37.261Z,76.30
2019-02-04T20:07:32.244Z,75.95
2019-02-04T20:12:26.846Z,75.76
2019-02-04T20:17:21.435Z,76.84
2019-02-04T20:22:16.033Z,77.24
2019-02-04T20:27:10.637Z,77.72
2019-02-04T20:32:05.398Z,77.17
2019-02-04T20:36:59.970Z,77.19
2019-02-04T20:41:54.563Z,76.06
2019-02-04T20:46:49.157Z,76.07
2019-02-04T20:51:43.763Z,76.41
2019-02-04T20:56:38.426Z,76.79
2019-02-04T21:01:33.741Z,76.33
2019-02-04T21:06:28.346Z,76.91
2019-02-04T21:11:22.950Z,76.55
2019-02-04T21:16:17.662Z,77.55
2019-02-04T21:21:12.239Z,77.27
2019-02-04T21:26:07.165Z,77.49
2019-02-04T21:31:01.865Z,77.15
2019-02-04T21:35:56.526Z,77.68
2019-02-04T21:40:51.186Z,77.70
2019-02-04T21:45:45.870Z,78.20
2019-02-04T21:50:40.614Z,78.51
2019-02-04T21:55:35.690Z,79.44
2019-02-04T22:00:34.174Z,79.79
2019-02-04T22:05:35.251Z,79.86
2019-02-04T22:10:31.823Z,80.02
2019-02-04T22:15:26.525Z,80.50
2019-02-04T22:20:22.331Z,81.29
2019-02-04T22:25:26.117Z,80.91
2019-02-04T22:30:27.151Z,80.88
2019-02-04T22:35:21.776Z,81.13
2019-02-04T22:40:25.488Z,81.59
2019-02-04T22:45:20.893Z,82.26
2019-02-04T22:50:28.376Z,82.11
2019-02-04T22:55:31.725Z,81.77
2019-02-04T23:00:29.805Z,81.88
2019-02-04T23:05:24.526Z,82.12
2019-02-04T23:10:19.394Z,82.70
2019-02-04T23:15:14.210Z,82.76
2019-02-04T23:20:10.333Z,82.61
2019-02-04T23:25:07.144Z,82.24
2019-02-04T23:30:01.727Z,82.58
2019-02-04T23:34:56.348Z,82.21
2019-02-04T23:39:50.943Z,82.87
2019-02-04T23:44:45.534Z,84.13
2019-02-04T23:49:40.122Z,84.42
2019-02-04T23:54:34.719Z,84.14
2019-02-04T23:59:29.313Z,84.15
